Pagina principale
METAR-TAF:

METAR-TAF

Aeroporti :

Aeroporto di Baia Mare-Tăuții Măgherăuș

Baia Mare, Romania

latitudine: 47-40N, longitudine: 023-35E, altezza: 218 m

Osservazione

Il bollettino è stato emesso 42 minuti fa, alle 13:00 UTC
Vento 5 kt da ovest/nord-ovest, variando fra ovest e nord
Temperature 26°C
Umidità 54%
Pressione 1016 hPa
Visibilità 10 km o più
Nubi sparse ad un'altezza di 4400 ft

METAR: LRBM 171300Z 30005KT 270V360 9999 SCT044 26/16 Q1016

Ora: 16:42 (13:42 UTC)

Previsione

Il bollettino è stato emesso 2 ore e 42 minuti fa, alle 11:00 UTC
Previsione valida dal 17 alle 12 UTC al 17 alle 21 UTC
Vento 4 kt da direzioni variabili
Visibilità 10 km o più
Nubi sparse ad un'altezza di 4000 ft
Probabilità 30% :
Temporaneamente
dal 17 alle 12 UTC al 17 alle 16 UTC
Nubi sparse ad un'altezza di 3500 ft, Cumulonembo.

TAF: LRBM 171100Z 1712/1721 VRB04KT 9999 SCT040 PROB30 TEMPO 1712/1716 SCT035CB

Osservazioni e previsioni meteorologiche di più di 4000 aeroporti (messaggi METAR e TAF).

Le stazioni disponibili sono rappresentate dai dischi gialli e rossi sulla carta.

Puntare il mouse per vedere il nome della stazione.

Clicca sopra per visualizzare le osservazioni e previsioni meteorologiche.

Per cambiare la mappa : fare clic sui pulsanti verdi con una croce nera per ingrandire, il pulsante verde con un trattino per diminuire, o sulla freccia verde per le mappe adiacenti.


METAR-TAF: